sensor_id;sensor_type;location;lat;lon;timestamp;P1;durP1;ratioP1;P2;durP2;ratioP2
39404;SDS011;25121;51.090;17.038;2023-05-07T00:00:46;10.52;;;8.35;;
39404;SDS011;25121;51.090;17.038;2023-05-07T00:02:13;8.05;;;7.25;;
39404;SDS011;25121;51.090;17.038;2023-05-07T00:03:39;10.00;;;7.57;;
39404;SDS011;25121;51.090;17.038;2023-05-07T00:05:07;12.32;;;8.75;;
39404;SDS011;25121;51.090;17.038;2023-05-07T00:06:36;12.05;;;8.68;;
39404;SDS011;25121;51.090;17.038;2023-05-07T00:08:17;12.20;;;8.68;;
39404;SDS011;25121;51.090;17.038;2023-05-07T00:09:42;10.93;;;8.00;;
39404;SDS011;25121;51.090;17.038;2023-05-07T00:11:20;10.77;;;7.57;;
39404;SDS011;25121;51.090;17.038;2023-05-07T00:12:55;8.27;;;7.35;;
39404;SDS011;25121;51.090;17.038;2023-05-07T00:14:44;9.52;;;6.97;;
39404;SDS011;25121;51.090;17.038;2023-05-07T00:19:32;9.80;;;7.35;;
39404;SDS011;25121;51.090;17.038;2023-05-07T00:21:28;10.18;;;7.45;;
39404;SDS011;25121;51.090;17.038;2023-05-07T00:23:04;11.82;;;8.38;;
39404;SDS011;25121;51.090;17.038;2023-05-07T00:24:38;10.07;;;8.05;;
39404;SDS011;25121;51.090;17.038;2023-05-07T00:26:18;12.52;;;7.75;;
39404;SDS011;25121;51.090;17.038;2023-05-07T00:28:14;9.02;;;7.03;;
39404;SDS011;25121;51.090;17.038;2023-05-07T00:31:27;10.65;;;7.53;;
39404;SDS011;25121;51.090;17.038;2023-05-07T00:33:14;11.80;;;7.28;;
39404;SDS011;25121;51.090;17.038;2023-05-07T00:34:57;10.50;;;7.43;;
39404;SDS011;25121;51.090;17.038;2023-05-07T00:36:39;9.20;;;8.18;;
39404;SDS011;25121;51.090;17.038;2023-05-07T00:38:46;8.77;;;7.40;;
39404;SDS011;25121;51.090;17.038;2023-05-07T00:40:07;9.43;;;7.30;;
39404;SDS011;25121;51.090;17.038;2023-05-07T00:41:34;12.13;;;7.93;;
39404;SDS011;25121;51.090;17.038;2023-05-07T00:43:19;12.75;;;7.75;;
39404;SDS011;25121;51.090;17.038;2023-05-07T00:44:48;15.38;;;7.85;;
39404;SDS011;25121;51.090;17.038;2023-05-07T00:46:25;12.35;;;7.63;;
39404;SDS011;25121;51.090;17.038;2023-05-07T00:48:02;10.95;;;7.55;;
39404;SDS011;25121;51.090;17.038;2023-05-07T00:49:35;12.00;;;7.83;;
39404;SDS011;25121;51.090;17.038;2023-05-07T00:51:06;13.30;;;8.40;;
39404;SDS011;25121;51.090;17.038;2023-05-07T00:52:38;11.20;;;7.57;;
39404;SDS011;25121;51.090;17.038;2023-05-07T00:54:03;9.10;;;7.57;;
39404;SDS011;25121;51.090;17.038;2023-05-07T00:55:50;10.32;;;8.45;;
39404;SDS011;25121;51.090;17.038;2023-05-07T00:57:17;10.88;;;7.40;;
39404;SDS011;25121;51.090;17.038;2023-05-07T00:58:56;8.38;;;7.28;;
39404;SDS011;25121;51.090;17.038;2023-05-07T01:00:24;9.93;;;7.30;;
39404;SDS011;25121;51.090;17.038;2023-05-07T01:02:18;10.38;;;7.85;;
39404;SDS011;25121;51.090;17.038;2023-05-07T01:03:58;10.02;;;8.25;;
39404;SDS011;25121;51.090;17.038;2023-05-07T01:06:05;10.85;;;7.32;;
39404;SDS011;25121;51.090;17.038;2023-05-07T01:10:28;9.63;;;7.85;;
39404;SDS011;25121;51.090;17.038;2023-05-07T01:12:23;8.02;;;6.90;;
39404;SDS011;25121;51.090;17.038;2023-05-07T01:14:04;10.95;;;8.27;;
39404;SDS011;25121;51.090;17.038;2023-05-07T01:15:37;12.40;;;8.00;;
39404;SDS011;25121;51.090;17.038;2023-05-07T01:17:15;8.52;;;7.13;;
39404;SDS011;25121;51.090;17.038;2023-05-07T01:18:59;10.68;;;7.95;;
39404;SDS011;25121;51.090;17.038;2023-05-07T01:20:35;11.10;;;7.68;;
39404;SDS011;25121;51.090;17.038;2023-05-07T01:22:07;11.80;;;7.65;;
39404;SDS011;25121;51.090;17.038;2023-05-07T01:23:46;10.60;;;8.50;;
39404;SDS011;25121;51.090;17.038;2023-05-07T01:27:00;14.02;;;7.97;;
39404;SDS011;25121;51.090;17.038;2023-05-07T01:28:44;11.07;;;8.23;;
39404;SDS011;25121;51.090;17.038;2023-05-07T01:30:30;11.55;;;8.05;;
39404;SDS011;25121;51.090;17.038;2023-05-07T01:32:09;15.00;;;9.60;;
39404;SDS011;25121;51.090;17.038;2023-05-07T01:33:56;12.98;;;9.10;;
39404;SDS011;25121;51.090;17.038;2023-05-07T01:35:41;12.10;;;9.00;;
39404;SDS011;25121;51.090;17.038;2023-05-07T01:37:09;10.20;;;7.75;;
39404;SDS011;25121;51.090;17.038;2023-05-07T01:38:44;9.75;;;7.82;;
39404;SDS011;25121;51.090;17.038;2023-05-07T01:40:30;12.25;;;8.52;;
39404;SDS011;25121;51.090;17.038;2023-05-07T01:41:56;9.60;;;8.07;;
39404;SDS011;25121;51.090;17.038;2023-05-07T01:43:23;10.27;;;8.45;;
39404;SDS011;25121;51.090;17.038;2023-05-07T01:44:49;7.43;;;6.68;;
39404;SDS011;25121;51.090;17.038;2023-05-07T01:46:19;9.85;;;8.32;;
39404;SDS011;25121;51.090;17.038;2023-05-07T01:49:04;12.63;;;9.73;;
39404;SDS011;25121;51.090;17.038;2023-05-07T01:51:06;13.75;;;9.70;;
39404;SDS011;25121;51.090;17.038;2023-05-07T01:53:20;11.32;;;8.38;;
39404;SDS011;25121;51.090;17.038;2023-05-07T01:57:49;14.45;;;9.65;;
39404;SDS011;25121;51.090;17.038;2023-05-07T01:59:33;11.70;;;8.45;;
39404;SDS011;25121;51.090;17.038;2023-05-07T02:00:57;13.65;;;8.18;;
39404;SDS011;25121;51.090;17.038;2023-05-07T02:12:32;11.48;;;8.32;;
39404;SDS011;25121;51.090;17.038;2023-05-07T02:14:18;10.00;;;8.48;;
39404;SDS011;25121;51.090;17.038;2023-05-07T02:16:11;11.77;;;8.23;;
39404;SDS011;25121;51.090;17.038;2023-05-07T02:17:57;16.70;;;9.68;;
39404;SDS011;25121;51.090;17.038;2023-05-07T02:19:38;10.48;;;8.30;;
39404;SDS011;25121;51.090;17.038;2023-05-07T02:21:06;11.68;;;8.40;;
39404;SDS011;25121;51.090;17.038;2023-05-07T02:22:34;12.48;;;8.50;;
39404;SDS011;25121;51.090;17.038;2023-05-07T02:24:07;10.98;;;7.90;;
39404;SDS011;25121;51.090;17.038;2023-05-07T02:25:35;12.05;;;7.50;;
39404;SDS011;25121;51.090;17.038;2023-05-07T02:26:58;10.38;;;7.85;;
39404;SDS011;25121;51.090;17.038;2023-05-07T02:28:25;13.10;;;7.53;;
39404;SDS011;25121;51.090;17.038;2023-05-07T02:29:55;9.93;;;7.60;;
39404;SDS011;25121;51.090;17.038;2023-05-07T02:31:19;11.02;;;8.30;;
39404;SDS011;25121;51.090;17.038;2023-05-07T02:32:43;10.40;;;8.23;;
39404;SDS011;25121;51.090;17.038;2023-05-07T02:36:43;10.77;;;8.23;;
39404;SDS011;25121;51.090;17.038;2023-05-07T02:45:01;10.88;;;8.10;;
39404;SDS011;25121;51.090;17.038;2023-05-07T02:49:29;11.02;;;8.93;;
39404;SDS011;25121;51.090;17.038;2023-05-07T02:51:01;8.20;;;7.13;;
39404;SDS011;25121;51.090;17.038;2023-05-07T03:14:32;14.10;;;8.88;;
39404;SDS011;25121;51.090;17.038;2023-05-07T03:25:16;12.32;;;7.78;;
39404;SDS011;25121;51.090;17.038;2023-05-07T03:32:14;14.52;;;8.68;;
39404;SDS011;25121;51.090;17.038;2023-05-07T03:34:32;11.60;;;8.40;;
39404;SDS011;25121;51.090;17.038;2023-05-07T03:40:02;12.23;;;8.38;;
39404;SDS011;25121;51.090;17.038;2023-05-07T03:41:47;12.68;;;8.00;;
39404;SDS011;25121;51.090;17.038;2023-05-07T03:43:44;9.95;;;7.15;;
39404;SDS011;25121;51.090;17.038;2023-05-07T03:46:00;16.90;;;8.70;;
39404;SDS011;25121;51.090;17.038;2023-05-07T03:47:41;11.98;;;7.38;;
39404;SDS011;25121;51.090;17.038;2023-05-07T03:49:18;12.93;;;7.70;;
39404;SDS011;25121;51.090;17.038;2023-05-07T03:51:01;16.95;;;7.80;;
39404;SDS011;25121;51.090;17.038;2023-05-07T03:53:27;8.07;;;6.60;;
39404;SDS011;25121;51.090;17.038;2023-05-07T03:59:43;10.20;;;7.00;;
39404;SDS011;25121;51.090;17.038;2023-05-07T04:23:12;7.15;;;5.78;;
39404;SDS011;25121;51.090;17.038;2023-05-07T04:24:43;8.25;;;6.60;;
39404;SDS011;25121;51.090;17.038;2023-05-07T04:29:59;6.72;;;6.05;;
39404;SDS011;25121;51.090;17.038;2023-05-07T04:34:38;6.65;;;5.90;;
39404;SDS011;25121;51.090;17.038;2023-05-07T04:36:14;7.93;;;6.95;;
39404;SDS011;25121;51.090;17.038;2023-05-07T04:38:08;11.23;;;5.57;;
39404;SDS011;25121;51.090;17.038;2023-05-07T04:39:32;6.97;;;5.93;;
39404;SDS011;25121;51.090;17.038;2023-05-07T04:41:35;6.50;;;5.65;;
39404;SDS011;25121;51.090;17.038;2023-05-07T04:43:13;7.75;;;6.45;;
39404;SDS011;25121;51.090;17.038;2023-05-07T04:45:18;6.65;;;6.00;;
39404;SDS011;25121;51.090;17.038;2023-05-07T04:49:23;6.63;;;5.93;;
39404;SDS011;25121;51.090;17.038;2023-05-07T04:53:17;10.80;;;6.40;;
39404;SDS011;25121;51.090;17.038;2023-05-07T04:55:11;9.50;;;6.50;;
39404;SDS011;25121;51.090;17.038;2023-05-07T04:57:11;13.00;;;7.22;;
39404;SDS011;25121;51.090;17.038;2023-05-07T04:58:52;7.18;;;6.47;;
39404;SDS011;25121;51.090;17.038;2023-05-07T05:00:32;7.22;;;5.57;;
39404;SDS011;25121;51.090;17.038;2023-05-07T05:09:59;6.30;;;5.70;;
39404;SDS011;25121;51.090;17.038;2023-05-07T05:12:48;10.27;;;5.90;;
39404;SDS011;25121;51.090;17.038;2023-05-07T05:14:46;5.57;;;5.00;;
39404;SDS011;25121;51.090;17.038;2023-05-07T05:19:40;9.35;;;5.68;;
39404;SDS011;25121;51.090;17.038;2023-05-07T05:21:29;6.82;;;5.60;;
39404;SDS011;25121;51.090;17.038;2023-05-07T05:33:37;7.68;;;5.80;;
39404;SDS011;25121;51.090;17.038;2023-05-07T05:41:18;8.30;;;6.60;;
39404;SDS011;25121;51.090;17.038;2023-05-07T05:44:43;7.03;;;5.90;;
39404;SDS011;25121;51.090;17.038;2023-05-07T05:53:01;11.85;;;6.50;;
39404;SDS011;25121;51.090;17.038;2023-05-07T05:54:35;8.85;;;7.63;;
39404;SDS011;25121;51.090;17.038;2023-05-07T05:58:03;6.95;;;6.03;;
39404;SDS011;25121;51.090;17.038;2023-05-07T06:03:02;9.82;;;6.03;;
39404;SDS011;25121;51.090;17.038;2023-05-07T06:05:01;6.90;;;5.93;;
39404;SDS011;25121;51.090;17.038;2023-05-07T06:06:45;18.23;;;5.95;;
39404;SDS011;25121;51.090;17.038;2023-05-07T06:08:56;9.02;;;5.95;;
39404;SDS011;25121;51.090;17.038;2023-05-07T06:13:35;7.20;;;5.70;;
39404;SDS011;25121;51.090;17.038;2023-05-07T06:14:57;11.82;;;5.75;;
39404;SDS011;25121;51.090;17.038;2023-05-07T06:16:20;7.65;;;6.40;;
39404;SDS011;25121;51.090;17.038;2023-05-07T06:17:42;7.22;;;5.72;;
39404;SDS011;25121;51.090;17.038;2023-05-07T06:19:07;8.43;;;6.00;;
39404;SDS011;25121;51.090;17.038;2023-05-07T06:20:33;8.55;;;5.65;;
39404;SDS011;25121;51.090;17.038;2023-05-07T06:22:24;7.35;;;5.45;;
39404;SDS011;25121;51.090;17.038;2023-05-07T06:23:52;8.82;;;6.15;;
39404;SDS011;25121;51.090;17.038;2023-05-07T06:25:27;8.88;;;5.80;;
39404;SDS011;25121;51.090;17.038;2023-05-07T06:26:49;7.22;;;5.97;;
39404;SDS011;25121;51.090;17.038;2023-05-07T06:28:22;7.35;;;5.78;;
39404;SDS011;25121;51.090;17.038;2023-05-07T06:29:51;7.40;;;5.70;;
39404;SDS011;25121;51.090;17.038;2023-05-07T06:31:13;6.50;;;5.50;;
39404;SDS011;25121;51.090;17.038;2023-05-07T06:32:49;6.43;;;5.47;;
39404;SDS011;25121;51.090;17.038;2023-05-07T06:34:16;8.60;;;5.35;;
39404;SDS011;25121;51.090;17.038;2023-05-07T06:35:37;7.38;;;5.45;;
39404;SDS011;25121;51.090;17.038;2023-05-07T06:37:01;7.72;;;4.93;;
39404;SDS011;25121;51.090;17.038;2023-05-07T06:38:40;5.30;;;4.63;;
39404;SDS011;25121;51.090;17.038;2023-05-07T06:40:04;7.75;;;4.75;;
39404;SDS011;25121;51.090;17.038;2023-05-07T06:41:31;6.82;;;4.43;;
39404;SDS011;25121;51.090;17.038;2023-05-07T06:45:21;3.92;;;3.60;;
39404;SDS011;25121;51.090;17.038;2023-05-07T06:46:48;4.80;;;4.30;;
39404;SDS011;25121;51.090;17.038;2023-05-07T06:48:11;4.93;;;4.45;;
39404;SDS011;25121;51.090;17.038;2023-05-07T06:49:42;5.32;;;4.43;;
39404;SDS011;25121;51.090;17.038;2023-05-07T06:51:10;6.70;;;4.68;;
39404;SDS011;25121;51.090;17.038;2023-05-07T06:52:37;5.97;;;5.03;;
39404;SDS011;25121;51.090;17.038;2023-05-07T06:54:03;6.75;;;5.68;;
39404;SDS011;25121;51.090;17.038;2023-05-07T06:55:32;6.90;;;5.80;;
39404;SDS011;25121;51.090;17.038;2023-05-07T06:56:55;6.65;;;5.40;;
39404;SDS011;25121;51.090;17.038;2023-05-07T06:58:23;7.93;;;5.55;;
39404;SDS011;25121;51.090;17.038;2023-05-07T06:59:49;6.10;;;5.15;;
39404;SDS011;25121;51.090;17.038;2023-05-07T07:01:17;7.35;;;6.10;;
39404;SDS011;25121;51.090;17.038;2023-05-07T07:02:44;5.88;;;5.13;;
39404;SDS011;25121;51.090;17.038;2023-05-07T07:04:14;6.32;;;5.38;;
39404;SDS011;25121;51.090;17.038;2023-05-07T07:05:46;5.88;;;5.28;;
39404;SDS011;25121;51.090;17.038;2023-05-07T07:09:47;7.63;;;5.45;;
39404;SDS011;25121;51.090;17.038;2023-05-07T07:11:18;5.80;;;5.15;;
39404;SDS011;25121;51.090;17.038;2023-05-07T07:12:56;5.47;;;4.97;;
39404;SDS011;25121;51.090;17.038;2023-05-07T07:14:20;5.70;;;5.07;;
39404;SDS011;25121;51.090;17.038;2023-05-07T07:15:48;6.60;;;4.95;;
39404;SDS011;25121;51.090;17.038;2023-05-07T07:17:22;6.05;;;5.25;;
39404;SDS011;25121;51.090;17.038;2023-05-07T07:18:53;5.85;;;4.78;;
39404;SDS011;25121;51.090;17.038;2023-05-07T07:20:34;10.98;;;4.88;;
39404;SDS011;25121;51.090;17.038;2023-05-07T07:22:01;5.57;;;5.05;;
39404;SDS011;25121;51.090;17.038;2023-05-07T07:26:09;5.30;;;4.80;;
39404;SDS011;25121;51.090;17.038;2023-05-07T07:27:31;8.48;;;4.70;;
39404;SDS011;25121;51.090;17.038;2023-05-07T07:28:55;4.45;;;4.05;;
39404;SDS011;25121;51.090;17.038;2023-05-07T07:30:19;5.05;;;4.50;;
39404;SDS011;25121;51.090;17.038;2023-05-07T07:31:43;5.25;;;4.75;;
39404;SDS011;25121;51.090;17.038;2023-05-07T07:33:09;4.55;;;4.13;;
39404;SDS011;25121;51.090;17.038;2023-05-07T07:34:49;7.00;;;5.38;;
39404;SDS011;25121;51.090;17.038;2023-05-07T07:36:11;4.75;;;4.10;;
39404;SDS011;25121;51.090;17.038;2023-05-07T07:37:36;4.22;;;3.83;;
39404;SDS011;25121;51.090;17.038;2023-05-07T07:39:01;3.55;;;3.15;;
39404;SDS011;25121;51.090;17.038;2023-05-07T07:40:24;4.80;;;3.50;;
39404;SDS011;25121;51.090;17.038;2023-05-07T07:41:51;4.70;;;3.35;;
39404;SDS011;25121;51.090;17.038;2023-05-07T07:43:14;5.57;;;3.33;;
39404;SDS011;25121;51.090;17.038;2023-05-07T07:44:40;5.50;;;3.55;;
39404;SDS011;25121;51.090;17.038;2023-05-07T07:46:05;4.65;;;3.22;;
39404;SDS011;25121;51.090;17.038;2023-05-07T07:47:42;4.78;;;3.47;;
39404;SDS011;25121;51.090;17.038;2023-05-07T07:49:19;3.67;;;3.38;;
39404;SDS011;25121;51.090;17.038;2023-05-07T07:50:51;4.88;;;4.38;;
39404;SDS011;25121;51.090;17.038;2023-05-07T07:52:30;3.75;;;3.45;;
39404;SDS011;25121;51.090;17.038;2023-05-07T07:53:55;4.95;;;3.90;;
39404;SDS011;25121;51.090;17.038;2023-05-07T07:55:22;3.95;;;3.50;;
39404;SDS011;25121;51.090;17.038;2023-05-07T07:58:40;4.70;;;4.25;;
39404;SDS011;25121;51.090;17.038;2023-05-07T08:00:03;5.25;;;4.43;;
39404;SDS011;25121;51.090;17.038;2023-05-07T08:01:36;6.25;;;4.50;;
39404;SDS011;25121;51.090;17.038;2023-05-07T08:03:04;6.18;;;4.85;;
39404;SDS011;25121;51.090;17.038;2023-05-07T08:04:41;4.43;;;4.03;;
39404;SDS011;25121;51.090;17.038;2023-05-07T08:06:04;6.35;;;4.43;;
39404;SDS011;25121;51.090;17.038;2023-05-07T08:07:29;6.25;;;4.50;;
39404;SDS011;25121;51.090;17.038;2023-05-07T08:08:55;5.75;;;5.18;;
39404;SDS011;25121;51.090;17.038;2023-05-07T08:10:36;6.65;;;5.45;;
39404;SDS011;25121;51.090;17.038;2023-05-07T08:12:26;5.88;;;5.28;;
39404;SDS011;25121;51.090;17.038;2023-05-07T08:13:58;6.63;;;5.50;;
39404;SDS011;25121;51.090;17.038;2023-05-07T08:15:38;7.32;;;5.85;;
39404;SDS011;25121;51.090;17.038;2023-05-07T08:17:30;8.52;;;5.95;;
39404;SDS011;25121;51.090;17.038;2023-05-07T08:19:01;8.02;;;5.80;;
39404;SDS011;25121;51.090;17.038;2023-05-07T08:20:29;6.57;;;5.97;;
39404;SDS011;25121;51.090;17.038;2023-05-07T08:21:53;10.00;;;6.90;;
39404;SDS011;25121;51.090;17.038;2023-05-07T08:23:21;8.00;;;5.60;;
39404;SDS011;25121;51.090;17.038;2023-05-07T08:24:44;8.73;;;6.32;;
39404;SDS011;25121;51.090;17.038;2023-05-07T08:26:07;9.50;;;6.50;;
39404;SDS011;25121;51.090;17.038;2023-05-07T08:27:36;7.47;;;6.38;;
39404;SDS011;25121;51.090;17.038;2023-05-07T08:29:06;8.25;;;6.18;;
39404;SDS011;25121;51.090;17.038;2023-05-07T08:31:05;9.52;;;6.93;;
39404;SDS011;25121;51.090;17.038;2023-05-07T08:32:37;9.10;;;6.65;;
39404;SDS011;25121;51.090;17.038;2023-05-07T08:34:05;7.35;;;6.10;;
39404;SDS011;25121;51.090;17.038;2023-05-07T08:37:17;10.65;;;6.50;;
39404;SDS011;25121;51.090;17.038;2023-05-07T08:38:42;7.80;;;6.65;;
39404;SDS011;25121;51.090;17.038;2023-05-07T08:40:07;9.85;;;6.90;;
39404;SDS011;25121;51.090;17.038;2023-05-07T08:41:35;10.63;;;6.20;;
39404;SDS011;25121;51.090;17.038;2023-05-07T08:42:58;7.85;;;6.40;;
39404;SDS011;25121;51.090;17.038;2023-05-07T08:44:22;7.78;;;6.32;;
39404;SDS011;25121;51.090;17.038;2023-05-07T08:45:48;8.40;;;6.10;;
39404;SDS011;25121;51.090;17.038;2023-05-07T08:47:14;8.05;;;5.65;;
39404;SDS011;25121;51.090;17.038;2023-05-07T08:48:43;10.93;;;7.82;;
39404;SDS011;25121;51.090;17.038;2023-05-07T08:50:14;7.43;;;6.60;;
39404;SDS011;25121;51.090;17.038;2023-05-07T08:51:41;7.80;;;7.00;;
39404;SDS011;25121;51.090;17.038;2023-05-07T08:53:06;10.23;;;6.00;;
39404;SDS011;25121;51.090;17.038;2023-05-07T08:54:34;8.55;;;6.97;;
39404;SDS011;25121;51.090;17.038;2023-05-07T08:56:09;10.20;;;7.18;;
39404;SDS011;25121;51.090;17.038;2023-05-07T08:57:40;9.50;;;7.88;;
39404;SDS011;25121;51.090;17.038;2023-05-07T08:59:04;8.25;;;7.20;;
39404;SDS011;25121;51.090;17.038;2023-05-07T09:00:28;8.93;;;7.90;;
39404;SDS011;25121;51.090;17.038;2023-05-07T09:01:51;8.77;;;7.72;;
39404;SDS011;25121;51.090;17.038;2023-05-07T09:03:15;10.10;;;7.50;;
39404;SDS011;25121;51.090;17.038;2023-05-07T09:04:47;10.20;;;7.68;;
39404;SDS011;25121;51.090;17.038;2023-05-07T09:06:25;8.93;;;8.02;;
39404;SDS011;25121;51.090;17.038;2023-05-07T09:07:48;10.90;;;9.13;;
39404;SDS011;25121;51.090;17.038;2023-05-07T09:09:28;11.48;;;8.13;;
39404;SDS011;25121;51.090;17.038;2023-05-07T09:10:57;9.75;;;7.53;;
39404;SDS011;25121;51.090;17.038;2023-05-07T09:12:24;11.02;;;7.70;;
39404;SDS011;25121;51.090;17.038;2023-05-07T09:13:53;8.77;;;7.60;;
39404;SDS011;25121;51.090;17.038;2023-05-07T09:15:25;10.23;;;8.07;;
39404;SDS011;25121;51.090;17.038;2023-05-07T09:16:53;8.68;;;7.28;;
39404;SDS011;25121;51.090;17.038;2023-05-07T09:18:40;9.93;;;7.80;;
39404;SDS011;25121;51.090;17.038;2023-05-07T09:22:37;9.30;;;6.30;;
39404;SDS011;25121;51.090;17.038;2023-05-07T09:25:44;7.63;;;6.82;;
39404;SDS011;25121;51.090;17.038;2023-05-07T09:31:38;9.35;;;6.85;;
39404;SDS011;25121;51.090;17.038;2023-05-07T09:34:08;8.55;;;6.30;;
39404;SDS011;25121;51.090;17.038;2023-05-07T09:36:29;9.75;;;5.93;;
39404;SDS011;25121;51.090;17.038;2023-05-07T09:38:36;7.70;;;5.68;;
39404;SDS011;25121;51.090;17.038;2023-05-07T09:41:08;6.95;;;5.43;;
39404;SDS011;25121;51.090;17.038;2023-05-07T09:42:52;8.10;;;6.07;;
39404;SDS011;25121;51.090;17.038;2023-05-07T09:44:23;7.22;;;6.00;;
39404;SDS011;25121;51.090;17.038;2023-05-07T09:47:53;9.65;;;7.07;;
39404;SDS011;25121;51.090;17.038;2023-05-07T09:53:11;9.23;;;8.00;;
39404;SDS011;25121;51.090;17.038;2023-05-07T09:54:42;8.27;;;7.18;;
39404;SDS011;25121;51.090;17.038;2023-05-07T09:56:15;11.50;;;8.13;;
39404;SDS011;25121;51.090;17.038;2023-05-07T09:57:45;12.45;;;8.50;;
39404;SDS011;25121;51.090;17.038;2023-05-07T10:00:06;13.77;;;9.00;;
39404;SDS011;25121;51.090;17.038;2023-05-07T10:02:13;9.93;;;8.45;;
39404;SDS011;25121;51.090;17.038;2023-05-07T10:03:51;8.82;;;7.43;;
39404;SDS011;25121;51.090;17.038;2023-05-07T10:05:19;10.23;;;6.93;;
39404;SDS011;25121;51.090;17.038;2023-05-07T10:06:55;10.13;;;7.32;;
39404;SDS011;25121;51.090;17.038;2023-05-07T10:08:40;8.35;;;6.25;;
39404;SDS011;25121;51.090;17.038;2023-05-07T10:10:15;7.30;;;6.00;;
39404;SDS011;25121;51.090;17.038;2023-05-07T10:12:02;7.65;;;6.85;;
39404;SDS011;25121;51.090;17.038;2023-05-07T10:13:32;11.18;;;6.68;;
39404;SDS011;25121;51.090;17.038;2023-05-07T10:15:05;7.15;;;6.10;;
39404;SDS011;25121;51.090;17.038;2023-05-07T10:16:40;7.40;;;6.00;;
39404;SDS011;25121;51.090;17.038;2023-05-07T10:21:02;7.00;;;5.25;;
39404;SDS011;25121;51.090;17.038;2023-05-07T10:22:48;5.97;;;5.38;;
39404;SDS011;25121;51.090;17.038;2023-05-07T10:24:31;7.25;;;6.05;;
39404;SDS011;25121;51.090;17.038;2023-05-07T10:26:36;8.10;;;6.25;;
39404;SDS011;25121;51.090;17.038;2023-05-07T10:28:11;7.43;;;6.63;;
39404;SDS011;25121;51.090;17.038;2023-05-07T10:31:57;7.35;;;5.45;;
39404;SDS011;25121;51.090;17.038;2023-05-07T10:35:24;5.55;;;5.05;;
39404;SDS011;25121;51.090;17.038;2023-05-07T10:39:50;5.15;;;4.65;;
39404;SDS011;25121;51.090;17.038;2023-05-07T10:42:19;5.50;;;4.93;;
39404;SDS011;25121;51.090;17.038;2023-05-07T10:43:50;8.05;;;5.40;;
39404;SDS011;25121;51.090;17.038;2023-05-07T11:00:09;6.35;;;4.40;;
39404;SDS011;25121;51.090;17.038;2023-05-07T11:02:32;6.22;;;4.40;;
39404;SDS011;25121;51.090;17.038;2023-05-07T11:12:51;5.10;;;4.47;;
39404;SDS011;25121;51.090;17.038;2023-05-07T11:14:50;9.43;;;4.82;;
39404;SDS011;25121;51.090;17.038;2023-05-07T11:16:26;5.53;;;4.68;;
39404;SDS011;25121;51.090;17.038;2023-05-07T11:21:04;5.20;;;4.70;;
39404;SDS011;25121;51.090;17.038;2023-05-07T11:23:04;6.93;;;4.95;;
39404;SDS011;25121;51.090;17.038;2023-05-07T11:25:21;6.40;;;5.30;;
39404;SDS011;25121;51.090;17.038;2023-05-07T11:27:37;9.93;;;5.90;;
39404;SDS011;25121;51.090;17.038;2023-05-07T11:29:18;9.07;;;5.43;;
39404;SDS011;25121;51.090;17.038;2023-05-07T11:31:02;6.30;;;5.45;;
39404;SDS011;25121;51.090;17.038;2023-05-07T11:32:36;6.25;;;5.60;;
39404;SDS011;25121;51.090;17.038;2023-05-07T11:34:05;7.72;;;5.10;;
39404;SDS011;25121;51.090;17.038;2023-05-07T11:35:52;5.82;;;5.22;;
39404;SDS011;25121;51.090;17.038;2023-05-07T11:37:36;6.57;;;5.35;;
39404;SDS011;25121;51.090;17.038;2023-05-07T11:39:39;7.50;;;4.97;;
39404;SDS011;25121;51.090;17.038;2023-05-07T11:43:15;7.95;;;4.55;;
39404;SDS011;25121;51.090;17.038;2023-05-07T11:47:41;6.40;;;4.40;;
39404;SDS011;25121;51.090;17.038;2023-05-07T12:08:35;6.50;;;5.03;;
39404;SDS011;25121;51.090;17.038;2023-05-07T12:33:23;6.40;;;5.20;;
39404;SDS011;25121;51.090;17.038;2023-05-07T12:38:20;7.57;;;4.95;;
39404;SDS011;25121;51.090;17.038;2023-05-07T13:13:45;8.63;;;5.07;;
39404;SDS011;25121;51.090;17.038;2023-05-07T13:15:19;7.28;;;5.85;;
39404;SDS011;25121;51.090;17.038;2023-05-07T13:20:12;7.25;;;5.03;;
39404;SDS011;25121;51.090;17.038;2023-05-07T13:21:55;8.90;;;6.18;;
39404;SDS011;25121;51.090;17.038;2023-05-07T13:23:27;8.98;;;5.45;;
39404;SDS011;25121;51.090;17.038;2023-05-07T13:25:08;6.63;;;5.82;;
39404;SDS011;25121;51.090;17.038;2023-05-07T13:29:44;7.03;;;5.00;;
39404;SDS011;25121;51.090;17.038;2023-05-07T13:36:22;6.95;;;5.97;;
39404;SDS011;25121;51.090;17.038;2023-05-07T14:09:36;8.57;;;6.18;;
39404;SDS011;25121;51.090;17.038;2023-05-07T14:11:00;6.38;;;5.55;;
39404;SDS011;25121;51.090;17.038;2023-05-07T14:12:35;7.82;;;5.50;;
39404;SDS011;25121;51.090;17.038;2023-05-07T14:13:58;5.47;;;4.70;;
39404;SDS011;25121;51.090;17.038;2023-05-07T14:15:27;8.15;;;4.85;;
39404;SDS011;25121;51.090;17.038;2023-05-07T14:17:42;6.85;;;5.40;;
39404;SDS011;25121;51.090;17.038;2023-05-07T14:21:36;6.63;;;5.35;;
39404;SDS011;25121;51.090;17.038;2023-05-07T14:23:08;6.70;;;5.25;;
39404;SDS011;25121;51.090;17.038;2023-05-07T14:24:40;12.77;;;5.85;;
39404;SDS011;25121;51.090;17.038;2023-05-07T14:27:09;6.32;;;5.38;;
39404;SDS011;25121;51.090;17.038;2023-05-07T14:28:40;8.38;;;5.63;;
39404;SDS011;25121;51.090;17.038;2023-05-07T14:30:11;6.05;;;5.45;;
39404;SDS011;25121;51.090;17.038;2023-05-07T14:32:38;9.13;;;5.50;;
39404;SDS011;25121;51.090;17.038;2023-05-07T14:34:14;5.32;;;4.82;;
39404;SDS011;25121;51.090;17.038;2023-05-07T14:35:39;6.15;;;4.93;;
39404;SDS011;25121;51.090;17.038;2023-05-07T14:37:20;6.28;;;4.88;;
39404;SDS011;25121;51.090;17.038;2023-05-07T14:39:13;7.30;;;5.40;;
39404;SDS011;25121;51.090;17.038;2023-05-07T14:42:33;6.47;;;5.18;;
39404;SDS011;25121;51.090;17.038;2023-05-07T14:44:38;7.68;;;5.53;;
39404;SDS011;25121;51.090;17.038;2023-05-07T14:47:53;5.82;;;4.53;;
39404;SDS011;25121;51.090;17.038;2023-05-07T14:49:16;8.05;;;5.55;;
39404;SDS011;25121;51.090;17.038;2023-05-07T14:50:43;7.78;;;5.93;;
39404;SDS011;25121;51.090;17.038;2023-05-07T14:55:32;5.68;;;4.78;;
39404;SDS011;25121;51.090;17.038;2023-05-07T14:57:00;6.32;;;4.70;;
39404;SDS011;25121;51.090;17.038;2023-05-07T14:58:42;6.82;;;4.88;;
39404;SDS011;25121;51.090;17.038;2023-05-07T15:00:06;7.60;;;4.43;;
39404;SDS011;25121;51.090;17.038;2023-05-07T15:01:29;6.47;;;4.80;;
39404;SDS011;25121;51.090;17.038;2023-05-07T15:03:04;6.22;;;5.43;;
39404;SDS011;25121;51.090;17.038;2023-05-07T15:04:43;10.43;;;5.95;;
39404;SDS011;25121;51.090;17.038;2023-05-07T15:06:17;8.25;;;5.15;;
39404;SDS011;25121;51.090;17.038;2023-05-07T15:08:46;5.40;;;4.88;;
39404;SDS011;25121;51.090;17.038;2023-05-07T15:12:54;8.07;;;5.07;;
39404;SDS011;25121;51.090;17.038;2023-05-07T15:14:35;6.60;;;5.10;;
39404;SDS011;25121;51.090;17.038;2023-05-07T15:17:46;9.18;;;5.13;;
39404;SDS011;25121;51.090;17.038;2023-05-07T15:19:16;5.32;;;4.82;;
39404;SDS011;25121;51.090;17.038;2023-05-07T15:20:58;6.25;;;5.65;;
39404;SDS011;25121;51.090;17.038;2023-05-07T15:22:25;7.43;;;5.13;;
39404;SDS011;25121;51.090;17.038;2023-05-07T15:24:05;5.97;;;5.30;;
39404;SDS011;25121;51.090;17.038;2023-05-07T15:25:46;7.93;;;5.47;;
39404;SDS011;25121;51.090;17.038;2023-05-07T15:27:11;6.10;;;4.82;;
39404;SDS011;25121;51.090;17.038;2023-05-07T15:33:00;8.20;;;5.10;;
39404;SDS011;25121;51.090;17.038;2023-05-07T15:34:29;10.23;;;5.45;;
39404;SDS011;25121;51.090;17.038;2023-05-07T15:35:56;6.35;;;5.35;;
39404;SDS011;25121;51.090;17.038;2023-05-07T15:37:35;6.45;;;5.28;;
39404;SDS011;25121;51.090;17.038;2023-05-07T15:39:57;8.30;;;5.68;;